Time;durP1;ratioP1;P1;durP2;ratioP2;P2;SDS_P1;SDS_P2;PMS_P1;PMS_P2;Temp;Humidity;BMP_temperature;BMP_pressure;BME280_temperature;BME280_humidity;BME280_pressure;Samples;Min_cycle;Max_cycle;Signal;HPM_P1;HPM_P2
2022/12/21 00:00:54;;;;;;;19.30;17.20;;;;;;;;;;5090698;28;20443;-74
2022/12/21 00:03:21;;;;;;;18.53;16.83;;;;;;;;;;5081487;28;20871;-75
2022/12/21 00:05:48;;;;;;;17.10;15.20;;;;;;;;;;5089525;28;20458;-74
2022/12/21 00:08:16;;;;;;;19.10;17.30;;;;;;;;;;5073027;28;20453;-75
2022/12/21 00:10:43;;;;;;;18.40;16.60;;;;;;;;;;5073002;28;20444;-77
2022/12/21 00:13:10;;;;;;;19.83;17.73;;;;;;;;;;5071702;28;20948;-75
2022/12/21 00:15:37;;;;;;;18.93;17.23;;;;;;;;;;5090440;28;20445;-75
2022/12/21 00:18:04;;;;;;;19.73;17.67;;;;;;;;;;5092548;28;20468;-76
2022/12/21 00:20:32;;;;;;;18.87;17.07;;;;;;;;;;5093189;28;20912;-76
2022/12/21 00:22:59;;;;;;;19.67;17.20;;;;;;;;;;5094643;28;20482;-75
2022/12/21 00:25:27;;;;;;;17.93;16.07;;;;;;;;;;5095079;28;20447;-74
2022/12/21 00:27:54;;;;;;;18.50;16.57;;;;;;;;;;5093489;28;20444;-75
2022/12/21 00:30:21;;;;;;;19.17;17.37;;;;;;;;;;5092458;28;20469;-75
2022/12/21 00:32:48;;;;;;;18.00;16.03;;;;;;;;;;5091417;28;20451;-75
2022/12/21 00:35:15;;;;;;;18.23;16.53;;;;;;;;;;5092454;28;20456;-76
2022/12/21 00:37:42;;;;;;;17.87;16.23;;;;;;;;;;5092088;28;20468;-77
2022/12/21 00:40:10;;;;;;;18.23;16.33;;;;;;;;;;5092117;28;20509;-75
2022/12/21 00:42:38;;;;;;;15.37;13.97;;;;;;;;;;5091522;28;20508;-76
2022/12/21 00:45:06;;;;;;;16.80;15.03;;;;;;;;;;5092154;28;20438;-74
2022/12/21 00:47:33;;;;;;;16.37;14.77;;;;;;;;;;5091897;28;20491;-76
2022/12/21 00:50:00;;;;;;;14.20;13.00;;;;;;;;;;5092240;28;20443;-75
2022/12/21 00:52:28;;;;;;;14.53;13.13;;;;;;;;;;5092111;28;20465;-75
2022/12/21 00:54:55;;;;;;;11.00;9.00;;;;;;;;;;5091359;28;20436;-75
2022/12/21 00:57:22;;;;;;;12.00;10.90;;;;;;;;;;5091795;28;20467;-75
2022/12/21 00:59:51;;;;;;;8.83;7.90;;;;;;;;;;5091797;28;20866;-75
2022/12/21 01:02:18;;;;;;;9.13;8.10;;;;;;;;;;5086450;28;20435;-75
2022/12/21 01:04:45;;;;;;;8.47;7.60;;;;;;;;;;5091272;28;20484;-75
2022/12/21 01:07:12;;;;;;;6.43;5.93;;;;;;;;;;5091257;28;20979;-76
2022/12/21 01:09:39;;;;;;;8.77;7.87;;;;;;;;;;5091943;28;20848;-76
2022/12/21 01:12:06;;;;;;;9.53;6.97;;;;;;;;;;5091329;28;20892;-75
2022/12/21 01:14:33;;;;;;;8.53;7.73;;;;;;;;;;5081614;28;20432;-74
2022/12/21 01:17:01;;;;;;;9.67;8.77;;;;;;;;;;5071380;28;20472;-75
2022/12/21 01:19:28;;;;;;;6.53;6.03;;;;;;;;;;5070914;28;20802;-75
2022/12/21 01:21:56;;;;;;;7.40;6.70;;;;;;;;;;5070856;28;20444;-75
2022/12/21 01:24:23;;;;;;;5.57;5.07;;;;;;;;;;5069455;28;20477;-75
2022/12/21 01:26:50;;;;;;;5.77;5.27;;;;;;;;;;5070397;28;20992;-76
2022/12/21 01:29:17;;;;;;;5.50;5.00;;;;;;;;;;5070494;28;20441;-74
2022/12/21 01:31:44;;;;;;;6.87;6.37;;;;;;;;;;5071215;28;20448;-74
2022/12/21 01:34:12;;;;;;;8.47;7.67;;;;;;;;;;5070330;28;20449;-76
2022/12/21 01:36:39;;;;;;;9.10;8.20;;;;;;;;;;5070462;28;20972;-76
2022/12/21 01:39:06;;;;;;;9.90;8.90;;;;;;;;;;5070294;28;20447;-74
2022/12/21 01:41:33;;;;;;;11.53;10.33;;;;;;;;;;5070466;28;20540;-74
2022/12/21 01:44:01;;;;;;;13.57;12.37;;;;;;;;;;5069773;28;21017;-77
2022/12/21 01:46:29;;;;;;;15.37;13.80;;;;;;;;;;5070715;28;20468;-75
2022/12/21 01:49:00;;;;;;;16.27;14.67;;;;;;;;;;5070143;28;20449;-74
2022/12/21 01:51:29;;;;;;;15.17;13.70;;;;;;;;;;5070830;28;20468;-77
2022/12/21 01:53:57;;;;;;;17.00;15.30;;;;;;;;;;5070039;28;20433;-74
2022/12/21 01:56:26;;;;;;;16.40;14.90;;;;;;;;;;5070475;28;20453;-74
2022/12/21 01:58:53;;;;;;;16.57;14.87;;;;;;;;;;5070642;28;20453;-76
2022/12/21 02:01:20;;;;;;;16.10;14.40;;;;;;;;;;5070519;28;20445;-76
2022/12/21 02:03:50;;;;;;;16.60;14.80;;;;;;;;;;5069879;28;20487;-74
2022/12/21 02:06:18;;;;;;;16.10;14.70;;;;;;;;;;5070707;28;20460;-74
2022/12/21 02:08:47;;;;;;;16.70;15.10;;;;;;;;;;5070686;28;20448;-73
2022/12/21 02:11:15;;;;;;;17.77;15.33;;;;;;;;;;5070377;28;20440;-75
2022/12/21 02:13:42;;;;;;;15.50;13.93;;;;;;;;;;5073743;28;20437;-76
2022/12/21 02:16:17;;;;;;;15.33;13.93;;;;;;;;;;5077431;28;20525;-74
2022/12/21 02:18:49;;;;;;;15.23;13.73;;;;;;;;;;5077138;28;20436;-74
2022/12/21 02:21:23;;;;;;;11.90;10.87;;;;;;;;;;5070653;28;20951;-75
2022/12/21 02:24:07;;;;;;;9.03;8.07;;;;;;;;;;5069843;28;20476;-74
2022/12/21 02:26:46;;;;;;;8.00;7.30;;;;;;;;;;5071902;28;20799;-76
2022/12/21 02:29:34;;;;;;;8.83;8.03;;;;;;;;;;5084356;28;20448;-76
2022/12/21 02:32:07;;;;;;;6.10;5.60;;;;;;;;;;5064834;28;20469;-75
2022/12/21 02:34:36;;;;;;;6.07;5.67;;;;;;;;;;5090032;28;21010;-76
2022/12/21 02:37:08;;;;;;;9.50;5.03;;;;;;;;;;5090173;28;20455;-74
2022/12/21 02:39:41;;;;;;;7.13;4.80;;;;;;;;;;5090851;28;20420;-74
2022/12/21 02:44:12;;;;;;;4.80;4.40;;;;;;;;;;5092341;28;20493;-75
2022/12/21 02:45:02;;;;;;;6.40;5.17;;;;;;;;;;5091825;28;20875;-76
2022/12/21 02:47:33;;;;;;;4.90;4.60;;;;;;;;;;5091664;28;20491;-75
2022/12/21 02:50:04;;;;;;;4.90;4.50;;;;;;;;;;5094038;28;20432;-74
2022/12/21 02:52:34;;;;;;;5.00;4.50;;;;;;;;;;5090730;28;20427;-75
2022/12/21 02:55:02;;;;;;;4.50;4.10;;;;;;;;;;5089841;28;20824;-75
2022/12/21 02:57:33;;;;;;;5.90;4.73;;;;;;;;;;5090087;28;20463;-75
2022/12/21 03:00:00;;;;;;;4.60;4.30;;;;;;;;;;5090494;28;20497;-73
2022/12/21 03:02:38;;;;;;;5.13;4.50;;;;;;;;;;5090196;28;20966;-75
2022/12/21 03:05:23;;;;;;;4.43;4.03;;;;;;;;;;5090661;28;20544;-77
2022/12/21 03:07:59;;;;;;;4.40;4.10;;;;;;;;;;5095047;28;20451;-74
2022/12/21 03:10:32;;;;;;;4.73;4.43;;;;;;;;;;5096539;28;20435;-79
2022/12/21 03:13:03;;;;;;;5.23;4.33;;;;;;;;;;5108935;28;20432;-75
2022/12/21 03:15:35;;;;;;;4.10;3.80;;;;;;;;;;5081464;28;20433;-75
2022/12/21 03:18:09;;;;;;;4.43;4.13;;;;;;;;;;5069340;28;20881;-77
2022/12/21 03:20:41;;;;;;;4.50;4.20;;;;;;;;;;5069795;28;20427;-75
2022/12/21 03:23:10;;;;;;;4.33;3.93;;;;;;;;;;5068912;28;20449;-76
2022/12/21 03:25:40;;;;;;;3.60;3.40;;;;;;;;;;5069226;28;20477;-77
2022/12/21 03:28:10;;;;;;;4.50;4.20;;;;;;;;;;5069495;28;20460;-77
2022/12/21 03:30:40;;;;;;;4.47;4.17;;;;;;;;;;5069766;28;20445;-74
2022/12/21 03:33:09;;;;;;;6.03;3.83;;;;;;;;;;5068922;28;20432;-77
2022/12/21 03:35:46;;;;;;;4.30;4.00;;;;;;;;;;5069464;28;20444;-74
2022/12/21 03:38:16;;;;;;;4.60;4.20;;;;;;;;;;5069003;28;20451;-76
2022/12/21 03:40:44;;;;;;;3.87;3.67;;;;;;;;;;5069071;28;20510;-77
2022/12/21 03:43:13;;;;;;;4.37;3.97;;;;;;;;;;5068562;28;20448;-74
2022/12/21 03:45:42;;;;;;;4.70;4.00;;;;;;;;;;5069091;28;20472;-76
2022/12/21 03:48:13;;;;;;;4.40;4.00;;;;;;;;;;5070110;28;20468;-76
2022/12/21 03:50:43;;;;;;;4.50;4.10;;;;;;;;;;5072603;28;20486;-75
2022/12/21 03:53:15;;;;;;;6.37;4.27;;;;;;;;;;5072336;28;20444;-75
2022/12/21 03:55:43;;;;;;;5.33;4.03;;;;;;;;;;5072894;28;20436;-74
2022/12/21 03:58:10;;;;;;;4.20;3.73;;;;;;;;;;5072795;28;20924;-76
2022/12/21 04:00:40;;;;;;;4.13;3.77;;;;;;;;;;5072829;28;20452;-74
2022/12/21 04:03:12;;;;;;;4.00;3.80;;;;;;;;;;5071997;28;20448;-74
2022/12/21 04:05:45;;;;;;;5.67;4.50;;;;;;;;;;5072640;28;20876;-75
2022/12/21 04:08:12;;;;;;;4.90;4.40;;;;;;;;;;5072108;28;20436;-77
2022/12/21 04:10:39;;;;;;;4.07;3.67;;;;;;;;;;5072021;28;20452;-76
2022/12/21 04:13:05;;;;;;;5.00;4.13;;;;;;;;;;5071941;28;20449;-77
2022/12/21 04:18:14;;;;;;;4.40;3.47;;;;;;;;;;5072282;28;20507;-74
2022/12/21 04:20:41;;;;;;;4.40;4.00;;;;;;;;;;5072173;28;20955;-75
2022/12/21 04:28:38;;;;;;;4.30;4.00;;;;;;;;;;5072058;28;20443;-76
2022/12/21 04:31:05;;;;;;;3.87;3.13;;;;;;;;;;5085086;28;20452;-75
2022/12/21 04:33:32;;;;;;;5.50;4.53;;;;;;;;;;5091337;28;20966;-76
2022/12/21 04:38:46;;;;;;;5.90;3.60;;;;;;;;;;5092116;28;20399;-75
2022/12/21 04:41:14;;;;;;;7.80;4.17;;;;;;;;;;5091994;28;20451;-76
2022/12/21 04:43:42;;;;;;;5.93;3.80;;;;;;;;;;5091345;28;20485;-76
2022/12/21 04:46:10;;;;;;;5.67;4.20;;;;;;;;;;5091605;28;20475;-74
2022/12/21 04:48:37;;;;;;;4.00;3.70;;;;;;;;;;5092097;28;20447;-75
2022/12/21 04:51:06;;;;;;;3.47;3.27;;;;;;;;;;5092006;28;20444;-75
2022/12/21 04:53:33;;;;;;;3.80;3.50;;;;;;;;;;5091120;28;20459;-75
2022/12/21 04:56:00;;;;;;;5.07;3.70;;;;;;;;;;5091770;28;20447;-75
2022/12/21 04:58:27;;;;;;;3.97;3.73;;;;;;;;;;5091809;28;20466;-75
2022/12/21 05:00:54;;;;;;;4.80;3.80;;;;;;;;;;5091937;28;20439;-74
2022/12/21 05:03:21;;;;;;;5.10;3.63;;;;;;;;;;5091217;28;20451;-74
2022/12/21 05:05:48;;;;;;;4.20;3.77;;;;;;;;;;5091269;28;20967;-75
2022/12/21 05:08:17;;;;;;;3.47;3.27;;;;;;;;;;5091642;28;20450;-74
2022/12/21 05:10:44;;;;;;;2.93;2.73;;;;;;;;;;5091727;28;20490;-75
2022/12/21 05:13:11;;;;;;;3.90;3.40;;;;;;;;;;5090675;28;20455;-76
2022/12/21 05:15:39;;;;;;;3.67;3.47;;;;;;;;;;5073956;28;20839;-75
2022/12/21 05:18:06;;;;;;;4.70;3.43;;;;;;;;;;5071045;28;20998;-74
2022/12/21 05:20:33;;;;;;;4.40;4.00;;;;;;;;;;5071371;28;20449;-75
2022/12/21 05:23:00;;;;;;;4.00;3.13;;;;;;;;;;5071673;28;20471;-77
2022/12/21 05:25:28;;;;;;;4.13;3.17;;;;;;;;;;5073270;28;21131;-75
2022/12/21 05:27:55;;;;;;;4.20;3.23;;;;;;;;;;5073610;28;21015;-76
2022/12/21 05:30:22;;;;;;;4.20;3.90;;;;;;;;;;5071362;28;20445;-76
2022/12/21 05:32:49;;;;;;;3.87;3.57;;;;;;;;;;5070274;28;21078;-74
2022/12/21 05:35:16;;;;;;;3.17;2.87;;;;;;;;;;5070861;28;20936;-75
2022/12/21 05:37:43;;;;;;;4.00;3.00;;;;;;;;;;5072072;28;20568;-75
2022/12/21 05:40:11;;;;;;;3.40;3.20;;;;;;;;;;5073689;28;20463;-75
2022/12/21 05:42:39;;;;;;;3.23;2.93;;;;;;;;;;5087401;28;20947;-75
2022/12/21 05:45:07;;;;;;;4.47;4.10;;;;;;;;;;5093283;28;20486;-75
2022/12/21 05:47:34;;;;;;;4.13;3.83;;;;;;;;;;5094854;28;20459;-75
2022/12/21 05:50:01;;;;;;;3.73;3.43;;;;;;;;;;5091776;28;20455;-75
2022/12/21 05:52:28;;;;;;;4.50;4.10;;;;;;;;;;5094048;28;20972;-74
2022/12/21 05:54:55;;;;;;;5.53;3.50;;;;;;;;;;5093775;28;20432;-75
2022/12/21 05:57:22;;;;;;;4.40;4.03;;;;;;;;;;5094228;28;20479;-76
2022/12/21 05:59:50;;;;;;;4.53;3.47;;;;;;;;;;5093592;28;20850;-76
2022/12/21 06:02:17;;;;;;;3.63;3.33;;;;;;;;;;5090687;28;20458;-74
2022/12/21 06:04:45;;;;;;;4.10;3.70;;;;;;;;;;5090757;28;20468;-76
2022/12/21 06:07:12;;;;;;;3.97;3.60;;;;;;;;;;5090811;28;20476;-74
2022/12/21 06:09:39;;;;;;;4.73;4.40;;;;;;;;;;5090940;28;20462;-75
2022/12/21 06:12:07;;;;;;;5.87;4.23;;;;;;;;;;5090587;28;20466;-74
2022/12/21 06:14:34;;;;;;;5.20;4.53;;;;;;;;;;5089966;28;20435;-75
2022/12/21 06:17:02;;;;;;;5.03;4.60;;;;;;;;;;5090801;28;20459;-76
2022/12/21 06:19:29;;;;;;;7.23;5.37;;;;;;;;;;5090531;28;20843;-77
2022/12/21 06:21:56;;;;;;;7.00;6.30;;;;;;;;;;5090382;28;20458;-76
2022/12/21 06:24:23;;;;;;;6.83;6.13;;;;;;;;;;5089824;28;20446;-77
2022/12/21 06:26:50;;;;;;;7.40;6.70;;;;;;;;;;5090093;28;20456;-76
2022/12/21 06:29:17;;;;;;;10.03;7.60;;;;;;;;;;5090609;28;20448;-74
2022/12/21 06:31:45;;;;;;;11.50;7.70;;;;;;;;;;5090283;28;20442;-76
2022/12/21 06:34:13;;;;;;;8.17;6.97;;;;;;;;;;5089209;28;20480;-74
2022/12/21 06:36:40;;;;;;;10.60;6.83;;;;;;;;;;5090187;28;20451;-76
2022/12/21 06:39:07;;;;;;;7.97;6.80;;;;;;;;;;5089759;28;20966;-76
2022/12/21 06:41:34;;;;;;;6.33;5.70;;;;;;;;;;5080975;28;20858;-76
2022/12/21 06:44:01;;;;;;;7.20;6.50;;;;;;;;;;5089443;28;20439;-76
2022/12/21 06:46:29;;;;;;;7.13;5.07;;;;;;;;;;5089965;28;20561;-75
2022/12/21 06:48:56;;;;;;;7.53;4.80;;;;;;;;;;5089992;28;20822;-76
2022/12/21 06:51:25;;;;;;;30.53;26.10;;;;;;;;;;5093267;28;20526;-77
2022/12/21 06:53:53;;;;;;;5.97;5.37;;;;;;;;;;5091188;28;20808;-74
2022/12/21 06:56:21;;;;;;;6.47;5.87;;;;;;;;;;5089315;28;20455;-75
2022/12/21 06:58:49;;;;;;;6.17;5.47;;;;;;;;;;5089897;28;20447;-73
2022/12/21 07:01:16;;;;;;;8.13;5.30;;;;;;;;;;5089818;28;20448;-76
2022/12/21 07:03:44;;;;;;;5.63;5.20;;;;;;;;;;5088264;28;20449;-75
2022/12/21 07:06:12;;;;;;;6.77;5.30;;;;;;;;;;5090574;28;20494;-74
2022/12/21 07:08:40;;;;;;;5.77;5.17;;;;;;;;;;5090750;28;20440;-75
2022/12/21 07:11:08;;;;;;;7.43;6.73;;;;;;;;;;5090281;28;20447;-75
2022/12/21 07:13:36;;;;;;;10.67;9.43;;;;;;;;;;5089738;28;20452;-76
2022/12/21 07:16:03;;;;;;;13.47;11.67;;;;;;;;;;5089860;28;20431;-75
2022/12/21 07:18:30;;;;;;;16.50;14.70;;;;;;;;;;5089811;28;20850;-76
2022/12/21 07:20:58;;;;;;;16.63;13.37;;;;;;;;;;5089573;28;20452;-75
2022/12/21 07:23:25;;;;;;;15.60;11.17;;;;;;;;;;5090732;28;20447;-76
2022/12/21 07:25:54;;;;;;;9.70;8.80;;;;;;;;;;5082421;28;20476;-74
2022/12/21 07:28:21;;;;;;;12.10;9.77;;;;;;;;;;5073713;28;20548;-74
2022/12/21 07:30:48;;;;;;;11.97;9.80;;;;;;;;;;5073831;28;21020;-75
2022/12/21 07:33:16;;;;;;;9.50;7.50;;;;;;;;;;5074800;28;20464;-73
2022/12/21 07:35:43;;;;;;;8.50;5.37;;;;;;;;;;5075284;28;20893;-74
2022/12/21 07:38:10;;;;;;;10.03;5.60;;;;;;;;;;5074619;28;20481;-74
2022/12/21 07:40:38;;;;;;;6.23;5.60;;;;;;;;;;5072804;28;20488;-75
2022/12/21 07:43:09;;;;;;;6.90;5.43;;;;;;;;;;5072367;28;20447;-74
2022/12/21 07:45:36;;;;;;;5.13;4.67;;;;;;;;;;5072687;28;20576;-77
2022/12/21 07:48:04;;;;;;;6.97;5.20;;;;;;;;;;5072942;28;20468;-75
2022/12/21 07:50:31;;;;;;;5.87;5.37;;;;;;;;;;5072466;28;20816;-76
2022/12/21 07:52:58;;;;;;;4.40;3.97;;;;;;;;;;5072478;28;20445;-75
2022/12/21 07:55:26;;;;;;;6.47;3.60;;;;;;;;;;5073085;28;20851;-75
2022/12/21 07:57:53;;;;;;;4.87;4.30;;;;;;;;;;5073561;28;20561;-76
2022/12/21 08:00:23;;;;;;;4.40;3.57;;;;;;;;;;5073756;28;20440;-75
2022/12/21 08:02:51;;;;;;;4.17;3.87;;;;;;;;;;5072185;28;20429;-75
2022/12/21 08:05:18;;;;;;;4.03;3.63;;;;;;;;;;5072477;28;20933;-74
2022/12/21 08:07:45;;;;;;;4.17;3.77;;;;;;;;;;5072889;28;20464;-74
2022/12/21 08:10:12;;;;;;;5.93;3.70;;;;;;;;;;5072884;28;20448;-75
2022/12/21 08:12:39;;;;;;;3.77;3.47;;;;;;;;;;5072177;28;20447;-75
2022/12/21 08:15:07;;;;;;;3.00;2.73;;;;;;;;;;5072833;28;20463;-75
2022/12/21 08:17:35;;;;;;;3.80;3.43;;;;;;;;;;5072599;28;20562;-75
2022/12/21 08:20:02;;;;;;;2.87;2.67;;;;;;;;;;5073439;28;20521;-74
2022/12/21 08:22:30;;;;;;;4.13;3.73;;;;;;;;;;5072981;28;20475;-76
2022/12/21 08:24:57;;;;;;;3.87;3.07;;;;;;;;;;5072308;28;20444;-75
2022/12/21 08:27:24;;;;;;;3.40;2.83;;;;;;;;;;5071934;28;21159;-74
2022/12/21 08:29:51;;;;;;;3.60;3.30;;;;;;;;;;5071813;28;21096;-75
2022/12/21 08:32:18;;;;;;;3.47;3.17;;;;;;;;;;5072473;28;20448;-75
2022/12/21 08:34:46;;;;;;;4.00;3.60;;;;;;;;;;5073438;28;20467;-75
2022/12/21 08:37:13;;;;;;;3.70;3.40;;;;;;;;;;5074227;28;20464;-75
2022/12/21 08:39:40;;;;;;;5.10;3.30;;;;;;;;;;5074795;28;20484;-75
2022/12/21 08:42:07;;;;;;;4.77;3.37;;;;;;;;;;5075720;28;20804;-75
2022/12/21 08:44:34;;;;;;;3.37;3.13;;;;;;;;;;5074171;28;20652;-75
2022/12/21 08:47:01;;;;;;;3.80;3.43;;;;;;;;;;5073584;28;21148;-75
2022/12/21 08:49:28;;;;;;;5.77;4.17;;;;;;;;;;5071841;28;20451;-75
2022/12/21 08:51:57;;;;;;;4.60;3.50;;;;;;;;;;5071341;28;20448;-75
2022/12/21 08:54:25;;;;;;;3.80;3.50;;;;;;;;;;5071296;28;20440;-75
2022/12/21 08:56:52;;;;;;;5.93;3.13;;;;;;;;;;5071518;28;20910;-76
2022/12/21 08:59:19;;;;;;;3.50;3.20;;;;;;;;;;5074352;28;20452;-75
2022/12/21 09:01:46;;;;;;;3.33;3.03;;;;;;;;;;5091660;28;20444;-74
2022/12/21 09:04:13;;;;;;;3.30;3.00;;;;;;;;;;5091178;28;20451;-75
2022/12/21 09:06:40;;;;;;;3.23;3.00;;;;;;;;;;5091802;28;20490;-76
2022/12/21 09:09:10;;;;;;;3.93;3.40;;;;;;;;;;5086278;28;20453;-77
2022/12/21 09:11:37;;;;;;;3.47;3.27;;;;;;;;;;5078272;28;20446;-75
2022/12/21 09:14:04;;;;;;;4.13;3.13;;;;;;;;;;5092547;28;20475;-76
2022/12/21 09:16:34;;;;;;;4.03;3.33;;;;;;;;;;5092619;28;20460;-76
2022/12/21 09:19:01;;;;;;;5.53;3.73;;;;;;;;;;5092398;28;20443;-74
2022/12/21 09:21:28;;;;;;;5.47;3.80;;;;;;;;;;5091119;28;20927;-76
2022/12/21 09:23:56;;;;;;;3.87;3.57;;;;;;;;;;5091394;28;20446;-74
2022/12/21 09:26:24;;;;;;;3.80;3.10;;;;;;;;;;5097650;28;20487;-75
2022/12/21 09:28:51;;;;;;;3.60;3.30;;;;;;;;;;5096907;28;20440;-75
2022/12/21 09:31:25;;;;;;;6.37;3.67;;;;;;;;;;5096456;28;20468;-78
2022/12/21 09:33:53;;;;;;;4.00;3.17;;;;;;;;;;5095824;28;20487;-75
2022/12/21 09:36:20;;;;;;;5.20;3.23;;;;;;;;;;5094662;28;20954;-75
2022/12/21 09:38:48;;;;;;;3.43;3.13;;;;;;;;;;5091127;28;20531;-76
2022/12/21 09:41:23;;;;;;;3.20;2.90;;;;;;;;;;5090962;28;20456;-75
2022/12/21 09:43:56;;;;;;;4.03;2.60;;;;;;;;;;5090805;28;20507;-76
2022/12/21 09:46:24;;;;;;;3.53;3.23;;;;;;;;;;5090585;28;21055;-76
2022/12/21 09:48:52;;;;;;;6.10;3.50;;;;;;;;;;5091370;28;20443;-76
2022/12/21 09:51:20;;;;;;;3.50;3.30;;;;;;;;;;5091742;28;20443;-76
2022/12/21 09:53:50;;;;;;;4.37;4.07;;;;;;;;;;5090293;28;20935;-75
2022/12/21 09:56:19;;;;;;;3.23;3.00;;;;;;;;;;5091791;28;20456;-77
2022/12/21 09:58:48;;;;;;;5.50;3.80;;;;;;;;;;5091130;28;20459;-76
2022/12/21 10:01:20;;;;;;;4.73;3.20;;;;;;;;;;5089360;28;21136;-76
2022/12/21 10:03:54;;;;;;;4.67;3.30;;;;;;;;;;5087859;28;20466;-75
2022/12/21 10:06:29;;;;;;;3.37;3.07;;;;;;;;;;5088157;28;20493;-76
2022/12/21 10:09:03;;;;;;;3.87;3.50;;;;;;;;;;5088645;28;20436;-74
2022/12/21 10:11:35;;;;;;;4.20;3.30;;;;;;;;;;5088821;28;20423;-76
2022/12/21 10:14:06;;;;;;;3.90;3.60;;;;;;;;;;5088114;28;20420;-77
2022/12/21 10:16:39;;;;;;;5.37;3.60;;;;;;;;;;5088085;28;21280;-75
2022/12/21 10:19:10;;;;;;;5.33;3.87;;;;;;;;;;5087963;28;20428;-76
2022/12/21 10:21:42;;;;;;;3.63;3.43;;;;;;;;;;5088687;28;20439;-77
2022/12/21 10:24:15;;;;;;;3.67;3.37;;;;;;;;;;5087428;28;20428;-75
2022/12/21 10:26:42;;;;;;;3.53;3.23;;;;;;;;;;5088071;28;20491;-76
2022/12/21 10:29:13;;;;;;;4.97;3.60;;;;;;;;;;5087695;28;20838;-76
2022/12/21 10:31:43;;;;;;;5.50;3.97;;;;;;;;;;5088111;28;20440;-76
2022/12/21 10:34:13;;;;;;;3.60;3.17;;;;;;;;;;5087526;28;20439;-73
2022/12/21 10:36:41;;;;;;;8.80;3.77;;;;;;;;;;5087946;28;20809;-75
2022/12/21 10:39:13;;;;;;;4.27;3.97;;;;;;;;;;5088246;28;20443;-75
2022/12/21 10:41:41;;;;;;;3.87;3.10;;;;;;;;;;5087949;28;20927;-75
2022/12/21 10:44:10;;;;;;;4.47;4.07;;;;;;;;;;5087353;28;20447;-75
2022/12/21 10:46:38;;;;;;;3.93;3.63;;;;;;;;;;5089903;28;20592;-76
2022/12/21 10:49:14;;;;;;;4.67;3.63;;;;;;;;;;5089049;28;20474;-76
2022/12/21 10:51:41;;;;;;;3.60;3.30;;;;;;;;;;5088590;28;20455;-75
2022/12/21 10:54:09;;;;;;;4.53;4.13;;;;;;;;;;5088161;28;20867;-76
2022/12/21 10:56:37;;;;;;;4.40;4.00;;;;;;;;;;5087321;28;21001;-78
2022/12/21 10:59:07;;;;;;;4.50;4.20;;;;;;;;;;5091707;28;20447;-77
2022/12/21 11:01:34;;;;;;;4.10;3.80;;;;;;;;;;5091939;28;20451;-77
2022/12/21 11:04:10;;;;;;;4.03;3.70;;;;;;;;;;5091339;28;20450;-77
2022/12/21 11:06:38;;;;;;;3.63;3.33;;;;;;;;;;5091799;28;20483;-75
2022/12/21 11:09:26;;;;;;;3.50;3.20;;;;;;;;;;5091885;28;20443;-75
2022/12/21 11:11:54;;;;;;;3.97;3.67;;;;;;;;;;5087257;28;20448;-74
2022/12/21 11:14:23;;;;;;;4.23;3.83;;;;;;;;;;5074961;28;20860;-75
2022/12/21 11:16:50;;;;;;;3.50;3.20;;;;;;;;;;5089220;28;20856;-77
2022/12/21 11:19:20;;;;;;;3.87;3.57;;;;;;;;;;5091569;28;20432;-74
2022/12/21 11:21:48;;;;;;;5.07;4.13;;;;;;;;;;5087655;28;20444;-75
2022/12/21 11:24:17;;;;;;;4.10;3.60;;;;;;;;;;5091667;28;20452;-77
2022/12/21 11:26:46;;;;;;;3.53;3.30;;;;;;;;;;5076734;28;20488;-75
2022/12/21 11:29:24;;;;;;;15.20;10.10;;;;;;;;;;5073782;28;20448;-75
2022/12/21 11:31:52;;;;;;;4.47;4.17;;;;;;;;;;5078568;28;20440;-76
2022/12/21 11:34:34;;;;;;;4.30;3.43;;;;;;;;;;5071617;28;20451;-76
2022/12/21 11:37:03;;;;;;;4.37;4.07;;;;;;;;;;5069613;28;20511;-75
2022/12/21 11:39:31;;;;;;;3.83;3.03;;;;;;;;;;5078162;28;20440;-74
2022/12/21 11:41:58;;;;;;;4.00;3.70;;;;;;;;;;5091684;28;20439;-76
2022/12/21 11:44:25;;;;;;;3.37;3.17;;;;;;;;;;5090975;28;20446;-75
2022/12/21 11:46:58;;;;;;;4.27;3.97;;;;;;;;;;5091213;28;20479;-75
2022/12/21 11:49:38;;;;;;;4.50;3.30;;;;;;;;;;5090941;28;20943;-75
2022/12/21 11:52:12;;;;;;;3.47;3.27;;;;;;;;;;5090509;28;20447;-74
2022/12/21 11:54:46;;;;;;;6.17;4.30;;;;;;;;;;5091418;28;20466;-75
2022/12/21 11:57:19;;;;;;;3.70;3.40;;;;;;;;;;5090640;28;20459;-75
2022/12/21 11:59:53;;;;;;;3.53;3.23;;;;;;;;;;5092422;28;20825;-76
2022/12/21 12:02:30;;;;;;;3.67;3.37;;;;;;;;;;5090860;28;21126;-76
2022/12/21 12:05:06;;;;;;;3.63;3.30;;;;;;;;;;5090952;28;20514;-76
2022/12/21 12:07:43;;;;;;;4.10;3.60;;;;;;;;;;5090508;28;20989;-76
2022/12/21 12:10:28;;;;;;;4.93;4.50;;;;;;;;;;5089058;28;20431;-77
2022/12/21 12:13:01;;;;;;;4.03;3.63;;;;;;;;;;5089833;28;20432;-76
2022/12/21 12:15:33;;;;;;;4.40;4.00;;;;;;;;;;5073720;28;20510;-76
2022/12/21 12:18:07;;;;;;;5.07;3.77;;;;;;;;;;5070578;28;20457;-76
2022/12/21 12:20:47;;;;;;;3.80;3.50;;;;;;;;;;5070513;28;20436;-77
2022/12/21 12:23:22;;;;;;;3.70;3.40;;;;;;;;;;5069452;28;20449;-75
2022/12/21 12:25:57;;;;;;;3.13;2.83;;;;;;;;;;5070017;28;20476;-76
2022/12/21 12:28:41;;;;;;;4.03;3.13;;;;;;;;;;5069684;28;20472;-75
2022/12/21 12:31:14;;;;;;;8.23;3.07;;;;;;;;;;5070058;28;20901;-76
2022/12/21 12:33:49;;;;;;;2.90;2.70;;;;;;;;;;5069363;28;20463;-77
2022/12/21 12:36:23;;;;;;;2.77;2.67;;;;;;;;;;5070003;28;21008;-75
2022/12/21 12:38:57;;;;;;;4.77;3.33;;;;;;;;;;5090780;28;20485;-77
2022/12/21 12:41:30;;;;;;;3.43;3.10;;;;;;;;;;5089888;28;20504;-76
2022/12/21 12:43:58;;;;;;;3.90;3.60;;;;;;;;;;5089351;28;20444;-75
2022/12/21 12:46:43;;;;;;;3.97;3.10;;;;;;;;;;5090369;28;20471;-76
2022/12/21 12:49:16;;;;;;;4.57;3.80;;;;;;;;;;5076609;28;20904;-75
2022/12/21 12:51:47;;;;;;;3.90;3.60;;;;;;;;;;5085078;28;20487;-75
2022/12/21 12:54:21;;;;;;;5.03;3.50;;;;;;;;;;5084847;28;20443;-75
2022/12/21 12:56:55;;;;;;;6.57;2.80;;;;;;;;;;5089785;28;20467;-75
2022/12/21 12:59:25;;;;;;;2.33;2.13;;;;;;;;;;5089648;28;20427;-76
2022/12/21 13:01:56;;;;;;;2.40;2.30;;;;;;;;;;5089616;28;20436;-75
2022/12/21 13:04:39;;;;;;;2.97;2.60;;;;;;;;;;5088935;28;20463;-78
2022/12/21 13:07:11;;;;;;;2.70;2.40;;;;;;;;;;5089366;28;20482;-75
2022/12/21 13:09:45;;;;;;;15.20;13.60;;;;;;;;;;5091619;28;20446;-75
2022/12/21 13:12:15;;;;;;;4.17;3.10;;;;;;;;;;5088308;28;20436;-75
2022/12/21 13:14:45;;;;;;;3.13;2.87;;;;;;;;;;5088458;28;20813;-76
2022/12/21 13:17:16;;;;;;;2.40;2.20;;;;;;;;;;5088947;28;20823;-76
2022/12/21 13:19:44;;;;;;;2.43;2.23;;;;;;;;;;5088891;28;20432;-75
2022/12/21 13:22:12;;;;;;;2.73;2.33;;;;;;;;;;5088171;28;20444;-77
2022/12/21 13:24:42;;;;;;;2.67;2.47;;;;;;;;;;5088142;28;20939;-76
2022/12/21 13:27:14;;;;;;;3.93;3.57;;;;;;;;;;5088683;28;20959;-77
2022/12/21 13:29:45;;;;;;;2.47;2.30;;;;;;;;;;5088940;28;20444;-75
2022/12/21 13:32:14;;;;;;;2.03;1.93;;;;;;;;;;5071943;28;21025;-75
2022/12/21 13:34:46;;;;;;;2.50;1.80;;;;;;;;;;5088667;28;20808;-76
2022/12/21 13:37:14;;;;;;;2.40;2.20;;;;;;;;;;5089379;28;20597;-75
2022/12/21 13:39:46;;;;;;;2.80;2.60;;;;;;;;;;5089235;28;20451;-76
2022/12/21 13:42:15;;;;;;;2.07;1.97;;;;;;;;;;5089002;28;20538;-76
2022/12/21 13:44:45;;;;;;;2.03;1.93;;;;;;;;;;5097154;28;20474;-76
2022/12/21 13:47:14;;;;;;;2.17;2.00;;;;;;;;;;5090545;28;20538;-75
2022/12/21 13:49:47;;;;;;;2.67;2.20;;;;;;;;;;5089532;28;20835;-77
2022/12/21 13:52:18;;;;;;;2.80;2.60;;;;;;;;;;5097611;28;20436;-77
2022/12/21 13:54:53;;;;;;;4.47;2.70;;;;;;;;;;5088402;28;20869;-78
2022/12/21 13:57:24;;;;;;;2.60;2.50;;;;;;;;;;5088611;28;20463;-75
2022/12/21 13:59:53;;;;;;;2.53;2.33;;;;;;;;;;5088812;28;20497;-76
2022/12/21 14:02:29;;;;;;;3.73;2.63;;;;;;;;;;5089677;28;20529;-76
2022/12/21 14:04:59;;;;;;;2.40;2.20;;;;;;;;;;5088455;28;20467;-75
2022/12/21 14:07:44;;;;;;;2.43;2.33;;;;;;;;;;5086209;28;20483;-76
2022/12/21 14:10:18;;;;;;;3.60;2.73;;;;;;;;;;5068936;28;20954;-75
2022/12/21 14:12:56;;;;;;;2.70;2.50;;;;;;;;;;5072225;28;20441;-76
2022/12/21 14:15:39;;;;;;;2.60;2.40;;;;;;;;;;5082258;28;20447;-76
2022/12/21 14:18:11;;;;;;;2.77;2.57;;;;;;;;;;5088398;28;20448;-75
2022/12/21 14:20:40;;;;;;;2.33;2.23;;;;;;;;;;5088494;28;20489;-76
2022/12/21 14:23:08;;;;;;;2.17;2.07;;;;;;;;;;5087222;28;20577;-76
2022/12/21 14:25:38;;;;;;;4.50;2.60;;;;;;;;;;5077407;28;20452;-76
2022/12/21 14:28:12;;;;;;;2.13;2.03;;;;;;;;;;5069697;28;20491;-76
2022/12/21 14:30:39;;;;;;;2.37;2.27;;;;;;;;;;5068972;28;20432;-74
2022/12/21 14:33:09;;;;;;;2.83;2.63;;;;;;;;;;5086095;28;20439;-75
2022/12/21 14:35:38;;;;;;;2.53;2.33;;;;;;;;;;5089537;28;20452;-75
2022/12/21 14:38:10;;;;;;;3.20;2.90;;;;;;;;;;5087894;28;20961;-76
2022/12/21 14:40:58;;;;;;;7.37;3.10;;;;;;;;;;5088300;28;20483;-75
2022/12/21 14:43:28;;;;;;;3.03;2.67;;;;;;;;;;5087777;28;21147;-76
2022/12/21 14:46:15;;;;;;;2.67;2.47;;;;;;;;;;5088532;28;20939;-75
2022/12/21 14:49:03;;;;;;;2.80;2.60;;;;;;;;;;5087571;28;20479;-77
2022/12/21 14:51:49;;;;;;;2.83;2.63;;;;;;;;;;5087422;28;21024;-76
2022/12/21 14:54:21;;;;;;;2.90;2.70;;;;;;;;;;5085853;28;20471;-75
2022/12/21 14:57:02;;;;;;;5.77;2.90;;;;;;;;;;5085370;28;20466;-75
2022/12/21 14:59:38;;;;;;;4.10;3.03;;;;;;;;;;5073866;28;20436;-75
2022/12/21 15:02:10;;;;;;;5.37;3.40;;;;;;;;;;5076638;28;20523;-75
2022/12/21 15:04:37;;;;;;;5.60;3.60;;;;;;;;;;5086895;28;20516;-74